sensor_id;sensor_type;location;lat;lon;timestamp;P1;durP1;ratioP1;P2;durP2;ratioP2
28625;SDS011;18905;42.668;23.364;2022-12-01T00:00:57;2.72;;;1.02;;
28625;SDS011;18905;42.668;23.364;2022-12-01T00:03:23;1.05;;;0.90;;
28625;SDS011;18905;42.668;23.364;2022-12-01T00:05:56;1.02;;;0.90;;
28625;SDS011;18905;42.668;23.364;2022-12-01T00:08:26;0.80;;;0.70;;
28625;SDS011;18905;42.668;23.364;2022-12-01T00:10:52;2.00;;;0.98;;
28625;SDS011;18905;42.668;23.364;2022-12-01T00:13:17;0.80;;;0.80;;
28625;SDS011;18905;42.668;23.364;2022-12-01T00:15:42;0.68;;;0.68;;
28625;SDS011;18905;42.668;23.364;2022-12-01T00:18:08;1.58;;;0.73;;
28625;SDS011;18905;42.668;23.364;2022-12-01T00:20:34;3.03;;;0.80;;
28625;SDS011;18905;42.668;23.364;2022-12-01T00:23:00;1.33;;;0.98;;
28625;SDS011;18905;42.668;23.364;2022-12-01T00:25:26;3.70;;;1.27;;
28625;SDS011;18905;42.668;23.364;2022-12-01T00:27:52;1.60;;;0.80;;
28625;SDS011;18905;42.668;23.364;2022-12-01T00:30:19;1.02;;;0.80;;
28625;SDS011;18905;42.668;23.364;2022-12-01T00:32:45;1.17;;;0.82;;
28625;SDS011;18905;42.668;23.364;2022-12-01T00:35:12;2.63;;;0.90;;
28625;SDS011;18905;42.668;23.364;2022-12-01T00:37:38;5.78;;;0.93;;
28625;SDS011;18905;42.668;23.364;2022-12-01T00:40:03;1.42;;;0.80;;
28625;SDS011;18905;42.668;23.364;2022-12-01T00:42:29;0.93;;;0.85;;
28625;SDS011;18905;42.668;23.364;2022-12-01T00:44:55;1.10;;;0.90;;
28625;SDS011;18905;42.668;23.364;2022-12-01T00:47:21;4.00;;;1.02;;
28625;SDS011;18905;42.668;23.364;2022-12-01T00:49:46;1.20;;;0.98;;
28625;SDS011;18905;42.668;23.364;2022-12-01T00:52:12;2.22;;;0.98;;
28625;SDS011;18905;42.668;23.364;2022-12-01T00:54:38;1.73;;;1.05;;
28625;SDS011;18905;42.668;23.364;2022-12-01T00:57:03;1.50;;;1.05;;
28625;SDS011;18905;42.668;23.364;2022-12-01T00:59:29;1.65;;;1.10;;
28625;SDS011;18905;42.668;23.364;2022-12-01T01:01:55;1.30;;;1.15;;
28625;SDS011;18905;42.668;23.364;2022-12-01T01:04:20;2.75;;;1.05;;
28625;SDS011;18905;42.668;23.364;2022-12-01T01:06:46;1.77;;;1.10;;
28625;SDS011;18905;42.668;23.364;2022-12-01T01:09:12;2.03;;;0.98;;
28625;SDS011;18905;42.668;23.364;2022-12-01T01:11:38;1.63;;;0.95;;
28625;SDS011;18905;42.668;23.364;2022-12-01T01:14:04;1.00;;;0.90;;
28625;SDS011;18905;42.668;23.364;2022-12-01T01:16:30;1.02;;;0.80;;
28625;SDS011;18905;42.668;23.364;2022-12-01T01:18:56;1.30;;;1.00;;
28625;SDS011;18905;42.668;23.364;2022-12-01T01:21:22;1.13;;;1.02;;
28625;SDS011;18905;42.668;23.364;2022-12-01T01:23:49;2.88;;;1.10;;
28625;SDS011;18905;42.668;23.364;2022-12-01T01:26:16;0.93;;;0.80;;
28625;SDS011;18905;42.668;23.364;2022-12-01T01:28:44;2.80;;;0.90;;
28625;SDS011;18905;42.668;23.364;2022-12-01T01:31:12;1.10;;;1.00;;
28625;SDS011;18905;42.668;23.364;2022-12-01T01:33:39;1.33;;;1.02;;
28625;SDS011;18905;42.668;23.364;2022-12-01T01:36:04;1.52;;;0.98;;
28625;SDS011;18905;42.668;23.364;2022-12-01T01:38:30;2.75;;;0.90;;
28625;SDS011;18905;42.668;23.364;2022-12-01T01:40:56;1.00;;;0.90;;
28625;SDS011;18905;42.668;23.364;2022-12-01T01:46:18;2.45;;;0.70;;
28625;SDS011;18905;42.668;23.364;2022-12-01T01:53:55;0.80;;;0.80;;
28625;SDS011;18905;42.668;23.364;2022-12-01T01:56:25;1.05;;;0.70;;
28625;SDS011;18905;42.668;23.364;2022-12-01T01:58:51;0.80;;;0.70;;
28625;SDS011;18905;42.668;23.364;2022-12-01T02:01:17;0.85;;;0.73;;
28625;SDS011;18905;42.668;23.364;2022-12-01T02:03:42;0.77;;;0.70;;
28625;SDS011;18905;42.668;23.364;2022-12-01T02:06:09;0.73;;;0.73;;
28625;SDS011;18905;42.668;23.364;2022-12-01T02:08:35;0.82;;;0.70;;
28625;SDS011;18905;42.668;23.364;2022-12-01T02:11:19;2.50;;;0.80;;
28625;SDS011;18905;42.668;23.364;2022-12-01T02:14:07;1.73;;;0.70;;
28625;SDS011;18905;42.668;23.364;2022-12-01T02:17:04;0.80;;;0.80;;
28625;SDS011;18905;42.668;23.364;2022-12-01T02:30:43;0.65;;;0.65;;
28625;SDS011;18905;42.668;23.364;2022-12-01T02:33:28;1.30;;;1.05;;
28625;SDS011;18905;42.668;23.364;2022-12-01T02:36:07;0.70;;;0.70;;
28625;SDS011;18905;42.668;23.364;2022-12-01T02:38:47;1.73;;;0.98;;
28625;SDS011;18905;42.668;23.364;2022-12-01T02:42:06;2.10;;;0.80;;
28625;SDS011;18905;42.668;23.364;2022-12-01T02:44:27;0.82;;;0.77;;
28625;SDS011;18905;42.668;23.364;2022-12-01T02:47:07;0.70;;;0.70;;
28625;SDS011;18905;42.668;23.364;2022-12-01T02:49:40;2.75;;;0.73;;
28625;SDS011;18905;42.668;23.364;2022-12-01T02:52:10;0.88;;;0.80;;
28625;SDS011;18905;42.668;23.364;2022-12-01T02:54:38;0.88;;;0.88;;
28625;SDS011;18905;42.668;23.364;2022-12-01T02:57:04;1.50;;;0.98;;
28625;SDS011;18905;42.668;23.364;2022-12-01T02:59:29;4.18;;;1.08;;
28625;SDS011;18905;42.668;23.364;2022-12-01T03:05:02;1.08;;;1.00;;
28625;SDS011;18905;42.668;23.364;2022-12-01T03:21:15;0.90;;;0.60;;
28625;SDS011;18905;42.668;23.364;2022-12-01T03:23:49;1.98;;;1.00;;
28625;SDS011;18905;42.668;23.364;2022-12-01T03:26:26;0.90;;;0.70;;
28625;SDS011;18905;42.668;23.364;2022-12-01T03:28:55;0.77;;;0.65;;
28625;SDS011;18905;42.668;23.364;2022-12-01T03:31:25;0.98;;;0.70;;
28625;SDS011;18905;42.668;23.364;2022-12-01T03:33:58;0.68;;;0.68;;
28625;SDS011;18905;42.668;23.364;2022-12-01T03:36:41;0.65;;;0.65;;
28625;SDS011;18905;42.668;23.364;2022-12-01T03:39:11;0.57;;;0.57;;
28625;SDS011;18905;42.668;23.364;2022-12-01T03:41:42;3.80;;;0.80;;
28625;SDS011;18905;42.668;23.364;2022-12-01T03:44:18;0.55;;;0.55;;
28625;SDS011;18905;42.668;23.364;2022-12-01T03:46:47;0.85;;;0.65;;
28625;SDS011;18905;42.668;23.364;2022-12-01T03:49:17;1.25;;;0.70;;
28625;SDS011;18905;42.668;23.364;2022-12-01T03:54:29;0.63;;;0.63;;
28625;SDS011;18905;42.668;23.364;2022-12-01T03:57:17;1.25;;;0.93;;
28625;SDS011;18905;42.668;23.364;2022-12-01T03:59:47;3.80;;;1.20;;
28625;SDS011;18905;42.668;23.364;2022-12-01T04:02:13;1.27;;;0.77;;
28625;SDS011;18905;42.668;23.364;2022-12-01T04:04:40;0.70;;;0.70;;
28625;SDS011;18905;42.668;23.364;2022-12-01T04:07:05;0.80;;;0.73;;
28625;SDS011;18905;42.668;23.364;2022-12-01T04:09:31;3.22;;;0.90;;
28625;SDS011;18905;42.668;23.364;2022-12-01T04:11:56;2.28;;;0.70;;
28625;SDS011;18905;42.668;23.364;2022-12-01T04:14:40;2.20;;;0.80;;
28625;SDS011;18905;42.668;23.364;2022-12-01T04:17:05;0.80;;;0.80;;
28625;SDS011;18905;42.668;23.364;2022-12-01T04:19:31;0.85;;;0.80;;
28625;SDS011;18905;42.668;23.364;2022-12-01T04:21:56;0.60;;;0.60;;
28625;SDS011;18905;42.668;23.364;2022-12-01T04:24:22;0.90;;;0.75;;
28625;SDS011;18905;42.668;23.364;2022-12-01T04:26:47;2.67;;;0.75;;
28625;SDS011;18905;42.668;23.364;2022-12-01T04:29:12;1.58;;;0.80;;
28625;SDS011;18905;42.668;23.364;2022-12-01T04:31:38;1.27;;;0.90;;
28625;SDS011;18905;42.668;23.364;2022-12-01T04:34:04;0.77;;;0.70;;
28625;SDS011;18905;42.668;23.364;2022-12-01T04:36:31;2.40;;;0.93;;
28625;SDS011;18905;42.668;23.364;2022-12-01T04:38:58;2.65;;;1.00;;
28625;SDS011;18905;42.668;23.364;2022-12-01T04:41:23;1.00;;;0.90;;
28625;SDS011;18905;42.668;23.364;2022-12-01T04:43:50;2.75;;;1.00;;
28625;SDS011;18905;42.668;23.364;2022-12-01T04:46:17;2.85;;;1.10;;
28625;SDS011;18905;42.668;23.364;2022-12-01T04:48:42;0.80;;;0.80;;
28625;SDS011;18905;42.668;23.364;2022-12-01T04:51:07;1.55;;;0.82;;
28625;SDS011;18905;42.668;23.364;2022-12-01T04:53:33;3.10;;;1.00;;
28625;SDS011;18905;42.668;23.364;2022-12-01T04:55:59;1.50;;;1.02;;
28625;SDS011;18905;42.668;23.364;2022-12-01T04:58:26;2.17;;;1.50;;
28625;SDS011;18905;42.668;23.364;2022-12-01T05:00:52;4.15;;;2.22;;
28625;SDS011;18905;42.668;23.364;2022-12-01T05:03:18;1.23;;;0.90;;
28625;SDS011;18905;42.668;23.364;2022-12-01T05:05:43;1.67;;;1.25;;
28625;SDS011;18905;42.668;23.364;2022-12-01T05:08:09;3.15;;;1.15;;
28625;SDS011;18905;42.668;23.364;2022-12-01T05:10:35;2.15;;;1.20;;
28625;SDS011;18905;42.668;23.364;2022-12-01T05:13:01;1.35;;;1.10;;
28625;SDS011;18905;42.668;23.364;2022-12-01T05:15:27;5.57;;;1.55;;
28625;SDS011;18905;42.668;23.364;2022-12-01T05:17:52;3.03;;;1.20;;
28625;SDS011;18905;42.668;23.364;2022-12-01T05:20:19;2.58;;;1.30;;
28625;SDS011;18905;42.668;23.364;2022-12-01T05:23:05;2.42;;;1.08;;
28625;SDS011;18905;42.668;23.364;2022-12-01T05:25:31;3.35;;;1.33;;
28625;SDS011;18905;42.668;23.364;2022-12-01T05:27:57;1.27;;;1.10;;
28625;SDS011;18905;42.668;23.364;2022-12-01T05:30:23;1.38;;;1.10;;
28625;SDS011;18905;42.668;23.364;2022-12-01T05:32:48;3.20;;;1.17;;
28625;SDS011;18905;42.668;23.364;2022-12-01T05:35:13;3.22;;;1.10;;
28625;SDS011;18905;42.668;23.364;2022-12-01T05:37:39;5.65;;;1.88;;
28625;SDS011;18905;42.668;23.364;2022-12-01T05:40:05;1.88;;;1.30;;
28625;SDS011;18905;42.668;23.364;2022-12-01T05:42:30;1.40;;;1.30;;
28625;SDS011;18905;42.668;23.364;2022-12-01T05:44:56;2.88;;;1.63;;
28625;SDS011;18905;42.668;23.364;2022-12-01T05:47:21;2.08;;;1.30;;
28625;SDS011;18905;42.668;23.364;2022-12-01T05:49:47;1.73;;;1.30;;
28625;SDS011;18905;42.668;23.364;2022-12-01T05:52:13;6.57;;;1.27;;
28625;SDS011;18905;42.668;23.364;2022-12-01T05:54:38;1.88;;;1.20;;
28625;SDS011;18905;42.668;23.364;2022-12-01T05:57:04;3.92;;;1.55;;
28625;SDS011;18905;42.668;23.364;2022-12-01T05:59:29;2.40;;;1.65;;
28625;SDS011;18905;42.668;23.364;2022-12-01T06:01:55;6.50;;;1.60;;
28625;SDS011;18905;42.668;23.364;2022-12-01T06:04:20;3.38;;;1.40;;
28625;SDS011;18905;42.668;23.364;2022-12-01T06:06:45;4.07;;;1.13;;
28625;SDS011;18905;42.668;23.364;2022-12-01T06:09:11;1.58;;;1.35;;
28625;SDS011;18905;42.668;23.364;2022-12-01T06:11:36;2.97;;;1.38;;
28625;SDS011;18905;42.668;23.364;2022-12-01T06:14:01;2.55;;;1.17;;
28625;SDS011;18905;42.668;23.364;2022-12-01T06:16:27;2.97;;;1.40;;
28625;SDS011;18905;42.668;23.364;2022-12-01T06:18:52;3.17;;;1.60;;
28625;SDS011;18905;42.668;23.364;2022-12-01T06:21:18;3.80;;;1.50;;
28625;SDS011;18905;42.668;23.364;2022-12-01T06:23:43;2.17;;;1.45;;
28625;SDS011;18905;42.668;23.364;2022-12-01T06:26:09;3.35;;;1.20;;
28625;SDS011;18905;42.668;23.364;2022-12-01T06:28:34;2.92;;;1.40;;
28625;SDS011;18905;42.668;23.364;2022-12-01T06:31:00;3.92;;;1.40;;
28625;SDS011;18905;42.668;23.364;2022-12-01T06:33:25;1.83;;;1.42;;
28625;SDS011;18905;42.668;23.364;2022-12-01T06:36:01;6.15;;;1.40;;
28625;SDS011;18905;42.668;23.364;2022-12-01T06:38:29;1.73;;;1.30;;
28625;SDS011;18905;42.668;23.364;2022-12-01T06:40:55;2.20;;;1.52;;
28625;SDS011;18905;42.668;23.364;2022-12-01T06:43:20;5.00;;;1.88;;
28625;SDS011;18905;42.668;23.364;2022-12-01T06:45:46;4.30;;;1.80;;
28625;SDS011;18905;42.668;23.364;2022-12-01T06:48:11;3.58;;;1.65;;
28625;SDS011;18905;42.668;23.364;2022-12-01T06:50:37;3.15;;;1.65;;
28625;SDS011;18905;42.668;23.364;2022-12-01T06:53:02;2.30;;;1.30;;
28625;SDS011;18905;42.668;23.364;2022-12-01T06:55:28;3.22;;;2.00;;
28625;SDS011;18905;42.668;23.364;2022-12-01T06:57:53;3.25;;;1.90;;
28625;SDS011;18905;42.668;23.364;2022-12-01T07:00:19;2.33;;;1.30;;
28625;SDS011;18905;42.668;23.364;2022-12-01T07:02:45;5.45;;;1.75;;
28625;SDS011;18905;42.668;23.364;2022-12-01T07:05:10;5.03;;;1.92;;
28625;SDS011;18905;42.668;23.364;2022-12-01T07:07:37;4.97;;;1.40;;
28625;SDS011;18905;42.668;23.364;2022-12-01T07:10:03;2.05;;;1.20;;
28625;SDS011;18905;42.668;23.364;2022-12-01T07:12:29;4.95;;;1.88;;
28625;SDS011;18905;42.668;23.364;2022-12-01T07:14:55;2.53;;;1.73;;
28625;SDS011;18905;42.668;23.364;2022-12-01T07:17:22;3.75;;;1.40;;
28625;SDS011;18905;42.668;23.364;2022-12-01T07:19:47;2.30;;;1.60;;
28625;SDS011;18905;42.668;23.364;2022-12-01T07:22:13;2.72;;;1.65;;
28625;SDS011;18905;42.668;23.364;2022-12-01T07:24:39;2.83;;;1.58;;
28625;SDS011;18905;42.668;23.364;2022-12-01T07:27:04;3.83;;;1.77;;
28625;SDS011;18905;42.668;23.364;2022-12-01T07:29:29;1.42;;;0.98;;
28625;SDS011;18905;42.668;23.364;2022-12-01T07:31:55;3.40;;;1.30;;
28625;SDS011;18905;42.668;23.364;2022-12-01T07:34:20;7.80;;;1.52;;
28625;SDS011;18905;42.668;23.364;2022-12-01T07:36:45;1.38;;;1.00;;
28625;SDS011;18905;42.668;23.364;2022-12-01T07:39:11;3.45;;;1.40;;
28625;SDS011;18905;42.668;23.364;2022-12-01T07:41:36;2.92;;;1.50;;
28625;SDS011;18905;42.668;23.364;2022-12-01T07:44:02;5.07;;;1.60;;
28625;SDS011;18905;42.668;23.364;2022-12-01T07:46:27;3.10;;;1.55;;
28625;SDS011;18905;42.668;23.364;2022-12-01T07:48:54;3.20;;;1.20;;
28625;SDS011;18905;42.668;23.364;2022-12-01T07:51:20;7.68;;;1.63;;
28625;SDS011;18905;42.668;23.364;2022-12-01T07:53:47;5.65;;;1.58;;
28625;SDS011;18905;42.668;23.364;2022-12-01T07:56:14;10.75;;;1.58;;
28625;SDS011;18905;42.668;23.364;2022-12-01T07:58:40;4.22;;;1.38;;
28625;SDS011;18905;42.668;23.364;2022-12-01T08:01:16;2.95;;;1.48;;
28625;SDS011;18905;42.668;23.364;2022-12-01T08:03:43;7.00;;;1.73;;
28625;SDS011;18905;42.668;23.364;2022-12-01T08:06:09;8.18;;;1.73;;
28625;SDS011;18905;42.668;23.364;2022-12-01T08:08:35;1.88;;;1.40;;
28625;SDS011;18905;42.668;23.364;2022-12-01T08:11:06;3.50;;;1.40;;
28625;SDS011;18905;42.668;23.364;2022-12-01T08:13:38;5.95;;;1.60;;
28625;SDS011;18905;42.668;23.364;2022-12-01T08:16:05;4.90;;;1.63;;
28625;SDS011;18905;42.668;23.364;2022-12-01T08:18:35;6.28;;;1.60;;
28625;SDS011;18905;42.668;23.364;2022-12-01T08:21:02;2.13;;;1.23;;
28625;SDS011;18905;42.668;23.364;2022-12-01T08:23:29;4.30;;;2.10;;
28625;SDS011;18905;42.668;23.364;2022-12-01T08:25:54;2.90;;;1.60;;
28625;SDS011;18905;42.668;23.364;2022-12-01T08:28:21;5.45;;;1.80;;
28625;SDS011;18905;42.668;23.364;2022-12-01T08:30:47;3.45;;;1.55;;
28625;SDS011;18905;42.668;23.364;2022-12-01T08:33:12;6.13;;;1.95;;
28625;SDS011;18905;42.668;23.364;2022-12-01T08:35:38;6.78;;;1.80;;
28625;SDS011;18905;42.668;23.364;2022-12-01T08:38:03;4.03;;;1.92;;
28625;SDS011;18905;42.668;23.364;2022-12-01T08:40:29;3.35;;;2.05;;
28625;SDS011;18905;42.668;23.364;2022-12-01T08:42:54;3.95;;;2.03;;
28625;SDS011;18905;42.668;23.364;2022-12-01T08:45:20;3.70;;;2.00;;
28625;SDS011;18905;42.668;23.364;2022-12-01T08:47:47;6.25;;;1.75;;
28625;SDS011;18905;42.668;23.364;2022-12-01T08:50:13;3.22;;;1.80;;
28625;SDS011;18905;42.668;23.364;2022-12-01T08:52:38;3.20;;;1.70;;
28625;SDS011;18905;42.668;23.364;2022-12-01T08:55:04;6.28;;;1.80;;
28625;SDS011;18905;42.668;23.364;2022-12-01T08:57:30;2.67;;;1.35;;
28625;SDS011;18905;42.668;23.364;2022-12-01T08:59:56;4.05;;;1.50;;
28625;SDS011;18905;42.668;23.364;2022-12-01T09:02:22;6.57;;;2.50;;
28625;SDS011;18905;42.668;23.364;2022-12-01T09:04:47;8.07;;;3.08;;
28625;SDS011;18905;42.668;23.364;2022-12-01T09:07:17;6.30;;;2.47;;
28625;SDS011;18905;42.668;23.364;2022-12-01T09:09:43;2.72;;;1.73;;
28625;SDS011;18905;42.668;23.364;2022-12-01T09:12:10;5.05;;;2.15;;
28625;SDS011;18905;42.668;23.364;2022-12-01T09:14:36;2.13;;;1.33;;
28625;SDS011;18905;42.668;23.364;2022-12-01T09:17:06;1.92;;;1.38;;
28625;SDS011;18905;42.668;23.364;2022-12-01T09:19:33;3.47;;;1.67;;
28625;SDS011;18905;42.668;23.364;2022-12-01T09:21:58;5.22;;;1.50;;
28625;SDS011;18905;42.668;23.364;2022-12-01T09:24:24;4.32;;;2.40;;
28625;SDS011;18905;42.668;23.364;2022-12-01T09:26:53;4.15;;;1.65;;
28625;SDS011;18905;42.668;23.364;2022-12-01T09:29:19;6.82;;;2.15;;
28625;SDS011;18905;42.668;23.364;2022-12-01T09:31:45;4.28;;;1.65;;
28625;SDS011;18905;42.668;23.364;2022-12-01T09:34:12;6.53;;;1.38;;
28625;SDS011;18905;42.668;23.364;2022-12-01T09:36:39;3.30;;;1.33;;
28625;SDS011;18905;42.668;23.364;2022-12-01T09:39:07;3.80;;;1.45;;
28625;SDS011;18905;42.668;23.364;2022-12-01T09:41:36;4.50;;;1.90;;
28625;SDS011;18905;42.668;23.364;2022-12-01T09:49:46;2.88;;;1.30;;
28625;SDS011;18905;42.668;23.364;2022-12-01T09:52:15;2.08;;;1.65;;
28625;SDS011;18905;42.668;23.364;2022-12-01T09:54:42;2.05;;;1.33;;
28625;SDS011;18905;42.668;23.364;2022-12-01T09:57:30;8.07;;;1.98;;
28625;SDS011;18905;42.668;23.364;2022-12-01T09:59:57;3.42;;;1.70;;
28625;SDS011;18905;42.668;23.364;2022-12-01T10:02:34;5.53;;;2.00;;
28625;SDS011;18905;42.668;23.364;2022-12-01T10:05:04;4.32;;;1.92;;
28625;SDS011;18905;42.668;23.364;2022-12-01T10:08:18;3.55;;;1.70;;
28625;SDS011;18905;42.668;23.364;2022-12-01T10:10:30;2.72;;;1.70;;
28625;SDS011;18905;42.668;23.364;2022-12-01T10:13:00;4.78;;;1.60;;
28625;SDS011;18905;42.668;23.364;2022-12-01T10:21:30;3.40;;;1.40;;
28625;SDS011;18905;42.668;23.364;2022-12-01T10:26:29;3.45;;;1.83;;
28625;SDS011;18905;42.668;23.364;2022-12-01T10:29:03;2.42;;;1.33;;
28625;SDS011;18905;42.668;23.364;2022-12-01T10:36:47;3.28;;;1.45;;
28625;SDS011;18905;42.668;23.364;2022-12-01T10:39:21;2.75;;;1.35;;
28625;SDS011;18905;42.668;23.364;2022-12-01T10:41:54;3.10;;;1.50;;
28625;SDS011;18905;42.668;23.364;2022-12-01T10:44:44;4.03;;;1.50;;
28625;SDS011;18905;42.668;23.364;2022-12-01T10:47:20;2.17;;;1.33;;
28625;SDS011;18905;42.668;23.364;2022-12-01T10:49:48;2.25;;;1.50;;
28625;SDS011;18905;42.668;23.364;2022-12-01T10:55:00;2.92;;;1.40;;
28625;SDS011;18905;42.668;23.364;2022-12-01T10:57:28;3.15;;;1.52;;
28625;SDS011;18905;42.668;23.364;2022-12-01T11:02:32;4.47;;;1.73;;
28625;SDS011;18905;42.668;23.364;2022-12-01T11:05:00;4.20;;;1.58;;
28625;SDS011;18905;42.668;23.364;2022-12-01T11:10:13;2.28;;;1.50;;
28625;SDS011;18905;42.668;23.364;2022-12-01T11:12:40;6.43;;;1.45;;
28625;SDS011;18905;42.668;23.364;2022-12-01T11:15:07;3.20;;;1.70;;
28625;SDS011;18905;42.668;23.364;2022-12-01T11:17:43;4.28;;;1.65;;
28625;SDS011;18905;42.668;23.364;2022-12-01T11:20:29;3.92;;;1.70;;
28625;SDS011;18905;42.668;23.364;2022-12-01T11:26:10;3.42;;;1.73;;
28625;SDS011;18905;42.668;23.364;2022-12-01T11:29:03;2.28;;;1.50;;
28625;SDS011;18905;42.668;23.364;2022-12-01T11:31:49;6.88;;;1.52;;
28625;SDS011;18905;42.668;23.364;2022-12-01T11:34:19;3.67;;;1.75;;
28625;SDS011;18905;42.668;23.364;2022-12-01T11:36:54;5.13;;;2.00;;
28625;SDS011;18905;42.668;23.364;2022-12-01T11:42:00;2.83;;;1.40;;
28625;SDS011;18905;42.668;23.364;2022-12-01T11:44:31;2.35;;;1.40;;
28625;SDS011;18905;42.668;23.364;2022-12-01T11:47:14;3.13;;;1.30;;
28625;SDS011;18905;42.668;23.364;2022-12-01T11:49:44;2.72;;;1.20;;
28625;SDS011;18905;42.668;23.364;2022-12-01T11:52:25;2.63;;;1.50;;
28625;SDS011;18905;42.668;23.364;2022-12-01T11:57:43;3.13;;;1.83;;
28625;SDS011;18905;42.668;23.364;2022-12-01T12:00:22;2.97;;;1.50;;
28625;SDS011;18905;42.668;23.364;2022-12-01T12:08:44;4.68;;;1.70;;
28625;SDS011;18905;42.668;23.364;2022-12-01T12:19:32;4.30;;;1.20;;
28625;SDS011;18905;42.668;23.364;2022-12-01T12:32:08;2.67;;;1.63;;
28625;SDS011;18905;42.668;23.364;2022-12-01T12:35:07;2.67;;;1.90;;
28625;SDS011;18905;42.668;23.364;2022-12-01T12:49:43;2.83;;;1.73;;
28625;SDS011;18905;42.668;23.364;2022-12-01T12:52:24;4.82;;;1.70;;
28625;SDS011;18905;42.668;23.364;2022-12-01T12:57:44;3.63;;;1.50;;
28625;SDS011;18905;42.668;23.364;2022-12-01T13:00:17;2.67;;;1.77;;
28625;SDS011;18905;42.668;23.364;2022-12-01T13:02:49;2.17;;;1.40;;
28625;SDS011;18905;42.668;23.364;2022-12-01T13:15:50;8.60;;;2.70;;
28625;SDS011;18905;42.668;23.364;2022-12-01T13:20:46;8.95;;;2.13;;
28625;SDS011;18905;42.668;23.364;2022-12-01T13:23:15;7.13;;;1.90;;
28625;SDS011;18905;42.668;23.364;2022-12-01T13:25:44;5.03;;;1.90;;
28625;SDS011;18905;42.668;23.364;2022-12-01T13:28:23;3.75;;;2.25;;
28625;SDS011;18905;42.668;23.364;2022-12-01T13:30:59;7.07;;;1.80;;
28625;SDS011;18905;42.668;23.364;2022-12-01T13:33:25;2.80;;;1.60;;
28625;SDS011;18905;42.668;23.364;2022-12-01T13:35:52;6.22;;;2.00;;
28625;SDS011;18905;42.668;23.364;2022-12-01T13:41:20;5.50;;;2.08;;
28625;SDS011;18905;42.668;23.364;2022-12-01T13:46:22;2.47;;;1.65;;
28625;SDS011;18905;42.668;23.364;2022-12-01T13:48:54;4.47;;;1.88;;
28625;SDS011;18905;42.668;23.364;2022-12-01T13:51:23;3.53;;;1.60;;
28625;SDS011;18905;42.668;23.364;2022-12-01T13:53:56;7.43;;;3.00;;
28625;SDS011;18905;42.668;23.364;2022-12-01T13:56:35;6.43;;;2.30;;
28625;SDS011;18905;42.668;23.364;2022-12-01T13:59:07;3.35;;;1.45;;
28625;SDS011;18905;42.668;23.364;2022-12-01T14:02:15;5.05;;;2.10;;
28625;SDS011;18905;42.668;23.364;2022-12-01T14:04:44;4.97;;;1.92;;
28625;SDS011;18905;42.668;23.364;2022-12-01T14:07:11;6.15;;;2.97;;
28625;SDS011;18905;42.668;23.364;2022-12-01T14:09:40;4.82;;;2.15;;
28625;SDS011;18905;42.668;23.364;2022-12-01T14:12:15;7.00;;;2.42;;
28625;SDS011;18905;42.668;23.364;2022-12-01T14:14:43;2.53;;;1.52;;
28625;SDS011;18905;42.668;23.364;2022-12-01T14:20:13;5.75;;;1.98;;
28625;SDS011;18905;42.668;23.364;2022-12-01T14:22:45;2.50;;;1.52;;
28625;SDS011;18905;42.668;23.364;2022-12-01T14:27:47;2.47;;;1.38;;
28625;SDS011;18905;42.668;23.364;2022-12-01T14:36:26;3.05;;;1.58;;
28625;SDS011;18905;42.668;23.364;2022-12-01T14:39:10;2.95;;;1.30;;
28625;SDS011;18905;42.668;23.364;2022-12-01T14:47:09;4.30;;;1.80;;
28625;SDS011;18905;42.668;23.364;2022-12-01T14:54:54;1.50;;;1.00;;
28625;SDS011;18905;42.668;23.364;2022-12-01T14:57:45;2.53;;;1.10;;
28625;SDS011;18905;42.668;23.364;2022-12-01T15:00:14;3.10;;;1.63;;
28625;SDS011;18905;42.668;23.364;2022-12-01T15:03:06;2.17;;;1.25;;
28625;SDS011;18905;42.668;23.364;2022-12-01T15:05:37;1.92;;;1.45;;
28625;SDS011;18905;42.668;23.364;2022-12-01T15:08:14;5.75;;;1.55;;
28625;SDS011;18905;42.668;23.364;2022-12-01T15:10:54;3.97;;;1.67;;
28625;SDS011;18905;42.668;23.364;2022-12-01T15:13:25;4.13;;;1.60;;
28625;SDS011;18905;42.668;23.364;2022-12-01T15:16:03;3.05;;;1.50;;
28625;SDS011;18905;42.668;23.364;2022-12-01T15:18:35;4.40;;;1.60;;
28625;SDS011;18905;42.668;23.364;2022-12-01T15:26:33;3.10;;;1.25;;
28625;SDS011;18905;42.668;23.364;2022-12-01T15:31:42;7.22;;;1.90;;
28625;SDS011;18905;42.668;23.364;2022-12-01T15:34:13;7.07;;;2.28;;
28625;SDS011;18905;42.668;23.364;2022-12-01T15:36:41;2.78;;;1.40;;
28625;SDS011;18905;42.668;23.364;2022-12-01T15:39:17;4.18;;;1.92;;
28625;SDS011;18905;42.668;23.364;2022-12-01T15:41:46;2.58;;;1.60;;
28625;SDS011;18905;42.668;23.364;2022-12-01T15:44:24;3.85;;;1.70;;
28625;SDS011;18905;42.668;23.364;2022-12-01T15:46:52;3.92;;;1.38;;
28625;SDS011;18905;42.668;23.364;2022-12-01T15:51:48;3.13;;;1.85;;
28625;SDS011;18905;42.668;23.364;2022-12-01T15:54:16;3.33;;;1.40;;
28625;SDS011;18905;42.668;23.364;2022-12-01T15:56:44;1.70;;;1.40;;
28625;SDS011;18905;42.668;23.364;2022-12-01T16:01:39;2.95;;;1.73;;
28625;SDS011;18905;42.668;23.364;2022-12-01T16:06:54;4.05;;;1.60;;
28625;SDS011;18905;42.668;23.364;2022-12-01T16:09:33;5.78;;;2.10;;
28625;SDS011;18905;42.668;23.364;2022-12-01T16:12:20;5.47;;;1.92;;
28625;SDS011;18905;42.668;23.364;2022-12-01T16:17:54;4.18;;;1.70;;
28625;SDS011;18905;42.668;23.364;2022-12-01T16:23:02;5.00;;;2.45;;
28625;SDS011;18905;42.668;23.364;2022-12-01T16:25:37;6.82;;;2.33;;
28625;SDS011;18905;42.668;23.364;2022-12-01T16:28:17;5.60;;;2.70;;
28625;SDS011;18905;42.668;23.364;2022-12-01T16:30:46;6.15;;;3.00;;
28625;SDS011;18905;42.668;23.364;2022-12-01T16:33:13;10.80;;;2.80;;
28625;SDS011;18905;42.668;23.364;2022-12-01T16:35:41;4.43;;;2.53;;
28625;SDS011;18905;42.668;23.364;2022-12-01T16:40:43;6.78;;;2.65;;
28625;SDS011;18905;42.668;23.364;2022-12-01T16:43:16;12.02;;;2.55;;
28625;SDS011;18905;42.668;23.364;2022-12-01T16:45:43;4.47;;;2.42;;
28625;SDS011;18905;42.668;23.364;2022-12-01T16:48:10;5.70;;;2.70;;
28625;SDS011;18905;42.668;23.364;2022-12-01T16:50:35;6.03;;;2.78;;
28625;SDS011;18905;42.668;23.364;2022-12-01T16:53:01;8.80;;;2.70;;
28625;SDS011;18905;42.668;23.364;2022-12-01T16:58:23;6.90;;;3.20;;
28625;SDS011;18905;42.668;23.364;2022-12-01T17:00:48;6.40;;;3.38;;
28625;SDS011;18905;42.668;23.364;2022-12-01T17:03:21;5.85;;;3.10;;
28625;SDS011;18905;42.668;23.364;2022-12-01T17:05:48;6.13;;;3.10;;
28625;SDS011;18905;42.668;23.364;2022-12-01T17:08:14;4.68;;;2.95;;
28625;SDS011;18905;42.668;23.364;2022-12-01T17:10:41;4.13;;;2.50;;
28625;SDS011;18905;42.668;23.364;2022-12-01T17:13:07;4.03;;;2.67;;
28625;SDS011;18905;42.668;23.364;2022-12-01T17:15:32;3.90;;;2.47;;
28625;SDS011;18905;42.668;23.364;2022-12-01T17:17:58;5.20;;;2.92;;
28625;SDS011;18905;42.668;23.364;2022-12-01T17:20:24;7.05;;;3.40;;
28625;SDS011;18905;42.668;23.364;2022-12-01T17:22:49;6.60;;;3.28;;
28625;SDS011;18905;42.668;23.364;2022-12-01T17:25:15;6.07;;;3.05;;
28625;SDS011;18905;42.668;23.364;2022-12-01T17:27:41;4.68;;;2.90;;
28625;SDS011;18905;42.668;23.364;2022-12-01T17:30:08;6.47;;;3.35;;
28625;SDS011;18905;42.668;23.364;2022-12-01T17:32:34;9.52;;;3.60;;
28625;SDS011;18905;42.668;23.364;2022-12-01T17:35:00;4.78;;;2.95;;
28625;SDS011;18905;42.668;23.364;2022-12-01T17:37:27;7.05;;;3.35;;
28625;SDS011;18905;42.668;23.364;2022-12-01T17:39:52;7.07;;;3.40;;
28625;SDS011;18905;42.668;23.364;2022-12-01T17:42:18;9.05;;;3.47;;
28625;SDS011;18905;42.668;23.364;2022-12-01T17:44:44;7.00;;;3.53;;
28625;SDS011;18905;42.668;23.364;2022-12-01T17:47:09;4.53;;;3.13;;